Terminal Aerodrome Forecast
Issued by NWS Twin Cities, MN

Home | Current Version | Previous Version | Text Only | Print | Product List | Glossary Off
Versions: 1 2 3 4 5 6 7 8 9 10 11 12 13 14 15 16 17 18 19 20 21 22 23 24 25 26

340
FTUS43 KMPX 221446 AAA
TAFMSP
TAF AMD
KMSP 221446Z 2215/2318 09005KT 6SM -SHRA BR VCTS SCT050 OVC090CB
      TEMPO 2217/2220 3SM TSRA OVC040CB
     FM222000 36005KT 6SM -SHRA BR VCTS SCT040 OVC070CB
      TEMPO 2220/2221 3SM TSRA OVC040CB
     FM222200 31005KT P6SM -SHRA BKN070
     FM230000 28004KT P6SM BKN120=

USA.gov is the U.S. government's official web portal to all federal, state and local government web resources and services.